sensor_id;sensor_type;location;lat;lon;timestamp;P1;durP1;ratioP1;P2;durP2;ratioP2
31450;SDS011;18070;52.474;13.304;2023-12-22T00:01:01;16.90;;;4.90;;
31450;SDS011;18070;52.474;13.304;2023-12-22T00:03:27;11.80;;;4.63;;
31450;SDS011;18070;52.474;13.304;2023-12-22T00:05:53;12.88;;;4.15;;
31450;SDS011;18070;52.474;13.304;2023-12-22T00:08:19;13.50;;;4.75;;
31450;SDS011;18070;52.474;13.304;2023-12-22T00:10:45;12.13;;;4.88;;
31450;SDS011;18070;52.474;13.304;2023-12-22T00:13:11;11.45;;;4.35;;
31450;SDS011;18070;52.474;13.304;2023-12-22T00:15:37;24.45;;;4.90;;
31450;SDS011;18070;52.474;13.304;2023-12-22T00:18:03;15.45;;;5.05;;
31450;SDS011;18070;52.474;13.304;2023-12-22T00:20:29;22.77;;;5.85;;
31450;SDS011;18070;52.474;13.304;2023-12-22T00:22:55;20.98;;;6.43;;
31450;SDS011;18070;52.474;13.304;2023-12-22T00:25:21;16.70;;;5.05;;
31450;SDS011;18070;52.474;13.304;2023-12-22T00:27:47;23.45;;;5.22;;
31450;SDS011;18070;52.474;13.304;2023-12-22T00:30:13;24.10;;;5.82;;
31450;SDS011;18070;52.474;13.304;2023-12-22T00:32:39;14.43;;;5.55;;
31450;SDS011;18070;52.474;13.304;2023-12-22T00:35:05;23.27;;;6.50;;
31450;SDS011;18070;52.474;13.304;2023-12-22T00:37:31;20.73;;;6.55;;
31450;SDS011;18070;52.474;13.304;2023-12-22T00:39:57;20.48;;;6.03;;
31450;SDS011;18070;52.474;13.304;2023-12-22T00:42:23;27.23;;;6.45;;
31450;SDS011;18070;52.474;13.304;2023-12-22T00:44:50;25.88;;;6.82;;
31450;SDS011;18070;52.474;13.304;2023-12-22T00:47:17;19.10;;;7.07;;
31450;SDS011;18070;52.474;13.304;2023-12-22T00:49:43;16.88;;;6.32;;
31450;SDS011;18070;52.474;13.304;2023-12-22T00:52:09;17.20;;;5.57;;
31450;SDS011;18070;52.474;13.304;2023-12-22T00:54:35;11.85;;;4.50;;
31450;SDS011;18070;52.474;13.304;2023-12-22T00:57:01;12.65;;;4.90;;
31450;SDS011;18070;52.474;13.304;2023-12-22T00:59:27;21.83;;;7.03;;
31450;SDS011;18070;52.474;13.304;2023-12-22T01:01:53;14.82;;;4.85;;
31450;SDS011;18070;52.474;13.304;2023-12-22T01:04:19;14.40;;;4.40;;
31450;SDS011;18070;52.474;13.304;2023-12-22T01:06:45;24.48;;;5.45;;
31450;SDS011;18070;52.474;13.304;2023-12-22T01:09:11;13.32;;;5.38;;
31450;SDS011;18070;52.474;13.304;2023-12-22T01:11:37;10.85;;;5.28;;
31450;SDS011;18070;52.474;13.304;2023-12-22T01:14:03;16.65;;;5.50;;
31450;SDS011;18070;52.474;13.304;2023-12-22T01:16:28;12.95;;;5.47;;
31450;SDS011;18070;52.474;13.304;2023-12-22T01:18:55;18.02;;;6.72;;
31450;SDS011;18070;52.474;13.304;2023-12-22T01:21:21;19.58;;;8.43;;
31450;SDS011;18070;52.474;13.304;2023-12-22T01:23:46;20.73;;;5.50;;
31450;SDS011;18070;52.474;13.304;2023-12-22T01:26:13;14.10;;;5.80;;
31450;SDS011;18070;52.474;13.304;2023-12-22T01:28:39;18.27;;;6.25;;
31450;SDS011;18070;52.474;13.304;2023-12-22T01:31:04;23.20;;;6.18;;
31450;SDS011;18070;52.474;13.304;2023-12-22T01:33:30;19.05;;;7.38;;
31450;SDS011;18070;52.474;13.304;2023-12-22T01:35:56;15.90;;;7.55;;
31450;SDS011;18070;52.474;13.304;2023-12-22T01:38:22;20.10;;;5.40;;
31450;SDS011;18070;52.474;13.304;2023-12-22T01:40:48;17.08;;;6.10;;
31450;SDS011;18070;52.474;13.304;2023-12-22T01:43:14;14.35;;;5.85;;
31450;SDS011;18070;52.474;13.304;2023-12-22T01:45:46;19.00;;;5.88;;
31450;SDS011;18070;52.474;13.304;2023-12-22T01:48:12;19.77;;;5.57;;
31450;SDS011;18070;52.474;13.304;2023-12-22T01:50:38;26.95;;;6.25;;
31450;SDS011;18070;52.474;13.304;2023-12-22T01:53:04;26.70;;;6.60;;
31450;SDS011;18070;52.474;13.304;2023-12-22T01:55:30;25.10;;;6.57;;
31450;SDS011;18070;52.474;13.304;2023-12-22T01:57:57;21.17;;;6.55;;
31450;SDS011;18070;52.474;13.304;2023-12-22T02:00:23;28.88;;;7.47;;
31450;SDS011;18070;52.474;13.304;2023-12-22T02:02:49;16.88;;;6.38;;
31450;SDS011;18070;52.474;13.304;2023-12-22T02:05:15;28.50;;;7.95;;
31450;SDS011;18070;52.474;13.304;2023-12-22T02:07:41;22.80;;;6.53;;
31450;SDS011;18070;52.474;13.304;2023-12-22T02:10:08;21.63;;;7.78;;
31450;SDS011;18070;52.474;13.304;2023-12-22T02:12:34;24.30;;;6.95;;
31450;SDS011;18070;52.474;13.304;2023-12-22T02:15:00;26.30;;;7.57;;
31450;SDS011;18070;52.474;13.304;2023-12-22T02:17:29;20.67;;;9.70;;
31450;SDS011;18070;52.474;13.304;2023-12-22T02:19:57;18.42;;;6.35;;
31450;SDS011;18070;52.474;13.304;2023-12-22T02:22:24;21.33;;;7.70;;
31450;SDS011;18070;52.474;13.304;2023-12-22T02:24:50;24.70;;;19.48;;
31450;SDS011;18070;52.474;13.304;2023-12-22T02:29:46;20.35;;;8.73;;
31450;SDS011;18070;52.474;13.304;2023-12-22T02:32:17;16.98;;;7.60;;
31450;SDS011;18070;52.474;13.304;2023-12-22T02:34:45;14.60;;;6.50;;
31450;SDS011;18070;52.474;13.304;2023-12-22T02:37:14;16.63;;;7.22;;
31450;SDS011;18070;52.474;13.304;2023-12-22T02:39:40;18.33;;;7.72;;
31450;SDS011;18070;52.474;13.304;2023-12-22T02:42:08;12.23;;;5.93;;
31450;SDS011;18070;52.474;13.304;2023-12-22T02:44:34;24.25;;;5.93;;
31450;SDS011;18070;52.474;13.304;2023-12-22T02:47:00;21.85;;;7.43;;
31450;SDS011;18070;52.474;13.304;2023-12-22T02:49:26;23.67;;;7.07;;
31450;SDS011;18070;52.474;13.304;2023-12-22T02:51:52;16.65;;;6.18;;
31450;SDS011;18070;52.474;13.304;2023-12-22T02:54:18;13.10;;;6.30;;
31450;SDS011;18070;52.474;13.304;2023-12-22T02:56:47;20.88;;;6.93;;
31450;SDS011;18070;52.474;13.304;2023-12-22T02:59:13;19.67;;;5.75;;
31450;SDS011;18070;52.474;13.304;2023-12-22T03:01:39;14.90;;;5.60;;
31450;SDS011;18070;52.474;13.304;2023-12-22T03:04:05;12.52;;;6.15;;
31450;SDS011;18070;52.474;13.304;2023-12-22T03:06:31;15.65;;;5.55;;
31450;SDS011;18070;52.474;13.304;2023-12-22T03:08:57;12.07;;;5.65;;
31450;SDS011;18070;52.474;13.304;2023-12-22T03:11:23;17.52;;;5.22;;
31450;SDS011;18070;52.474;13.304;2023-12-22T03:13:49;13.23;;;5.57;;
31450;SDS011;18070;52.474;13.304;2023-12-22T03:16:15;13.35;;;5.00;;
31450;SDS011;18070;52.474;13.304;2023-12-22T03:18:41;12.85;;;5.30;;
31450;SDS011;18070;52.474;13.304;2023-12-22T03:21:07;12.77;;;5.55;;
31450;SDS011;18070;52.474;13.304;2023-12-22T03:23:33;12.45;;;4.72;;
31450;SDS011;18070;52.474;13.304;2023-12-22T03:26:02;18.33;;;5.22;;
31450;SDS011;18070;52.474;13.304;2023-12-22T03:28:28;16.70;;;5.40;;
31450;SDS011;18070;52.474;13.304;2023-12-22T03:30:54;14.63;;;7.75;;
31450;SDS011;18070;52.474;13.304;2023-12-22T03:33:20;10.05;;;4.80;;
31450;SDS011;18070;52.474;13.304;2023-12-22T03:35:46;12.15;;;5.05;;
31450;SDS011;18070;52.474;13.304;2023-12-22T03:38:12;17.25;;;4.88;;
31450;SDS011;18070;52.474;13.304;2023-12-22T03:40:38;15.10;;;6.32;;
31450;SDS011;18070;52.474;13.304;2023-12-22T03:43:04;23.23;;;5.75;;
31450;SDS011;18070;52.474;13.304;2023-12-22T03:45:30;15.63;;;5.68;;
31450;SDS011;18070;52.474;13.304;2023-12-22T03:47:56;15.75;;;5.05;;
31450;SDS011;18070;52.474;13.304;2023-12-22T03:50:22;16.90;;;6.18;;
31450;SDS011;18070;52.474;13.304;2023-12-22T03:52:48;13.70;;;5.13;;
31450;SDS011;18070;52.474;13.304;2023-12-22T03:55:14;16.70;;;4.50;;
31450;SDS011;18070;52.474;13.304;2023-12-22T03:57:40;12.10;;;4.60;;
31450;SDS011;18070;52.474;13.304;2023-12-22T04:00:07;11.05;;;5.28;;
31450;SDS011;18070;52.474;13.304;2023-12-22T04:02:33;10.10;;;4.72;;
31450;SDS011;18070;52.474;13.304;2023-12-22T04:04:59;8.30;;;4.93;;
31450;SDS011;18070;52.474;13.304;2023-12-22T04:07:25;13.13;;;5.10;;
31450;SDS011;18070;52.474;13.304;2023-12-22T04:09:51;6.70;;;3.92;;
31450;SDS011;18070;52.474;13.304;2023-12-22T04:12:17;8.05;;;4.43;;
31450;SDS011;18070;52.474;13.304;2023-12-22T04:14:43;8.75;;;5.57;;
31450;SDS011;18070;52.474;13.304;2023-12-22T04:17:10;7.70;;;4.90;;
31450;SDS011;18070;52.474;13.304;2023-12-22T04:19:36;7.47;;;4.80;;
31450;SDS011;18070;52.474;13.304;2023-12-22T04:22:02;7.85;;;5.50;;
31450;SDS011;18070;52.474;13.304;2023-12-22T04:24:28;15.23;;;13.73;;
31450;SDS011;18070;52.474;13.304;2023-12-22T04:26:54;9.90;;;6.10;;
31450;SDS011;18070;52.474;13.304;2023-12-22T04:29:20;9.98;;;8.98;;
31450;SDS011;18070;52.474;13.304;2023-12-22T04:31:46;14.75;;;8.30;;
31450;SDS011;18070;52.474;13.304;2023-12-22T04:34:15;11.90;;;10.80;;
31450;SDS011;18070;52.474;13.304;2023-12-22T04:36:41;17.20;;;12.18;;
31450;SDS011;18070;52.474;13.304;2023-12-22T04:39:07;12.95;;;11.68;;
31450;SDS011;18070;52.474;13.304;2023-12-22T04:41:33;11.95;;;10.63;;
31450;SDS011;18070;52.474;13.304;2023-12-22T04:43:59;11.88;;;10.90;;
31450;SDS011;18070;52.474;13.304;2023-12-22T04:46:28;13.75;;;11.05;;
31450;SDS011;18070;52.474;13.304;2023-12-22T04:48:55;12.25;;;9.95;;
31450;SDS011;18070;52.474;13.304;2023-12-22T04:51:21;10.85;;;9.82;;
31450;SDS011;18070;52.474;13.304;2023-12-22T04:53:50;11.32;;;8.65;;
31450;SDS011;18070;52.474;13.304;2023-12-22T04:56:16;11.50;;;8.98;;
31450;SDS011;18070;52.474;13.304;2023-12-22T04:58:42;15.10;;;9.50;;
31450;SDS011;18070;52.474;13.304;2023-12-22T05:01:08;8.00;;;6.72;;
31450;SDS011;18070;52.474;13.304;2023-12-22T05:03:34;15.00;;;8.43;;
31450;SDS011;18070;52.474;13.304;2023-12-22T05:06:00;9.45;;;7.60;;
31450;SDS011;18070;52.474;13.304;2023-12-22T05:08:28;7.90;;;7.40;;
31450;SDS011;18070;52.474;13.304;2023-12-22T05:10:54;8.30;;;7.60;;
31450;SDS011;18070;52.474;13.304;2023-12-22T05:13:20;13.38;;;9.07;;
31450;SDS011;18070;52.474;13.304;2023-12-22T05:15:47;8.57;;;8.00;;
31450;SDS011;18070;52.474;13.304;2023-12-22T05:18:13;6.95;;;5.50;;
31450;SDS011;18070;52.474;13.304;2023-12-22T05:20:39;7.10;;;6.50;;
31450;SDS011;18070;52.474;13.304;2023-12-22T05:23:05;8.60;;;7.38;;
31450;SDS011;18070;52.474;13.304;2023-12-22T05:25:31;11.50;;;6.75;;
31450;SDS011;18070;52.474;13.304;2023-12-22T05:27:57;11.65;;;7.03;;
31450;SDS011;18070;52.474;13.304;2023-12-22T05:30:23;9.20;;;7.07;;
31450;SDS011;18070;52.474;13.304;2023-12-22T05:32:49;8.63;;;7.50;;
31450;SDS011;18070;52.474;13.304;2023-12-22T05:35:15;8.10;;;6.93;;
31450;SDS011;18070;52.474;13.304;2023-12-22T05:37:41;9.18;;;8.38;;
31450;SDS011;18070;52.474;13.304;2023-12-22T05:40:07;9.68;;;8.88;;
31450;SDS011;18070;52.474;13.304;2023-12-22T05:42:34;8.80;;;8.02;;
31450;SDS011;18070;52.474;13.304;2023-12-22T05:45:00;10.52;;;9.43;;
31450;SDS011;18070;52.474;13.304;2023-12-22T05:47:26;9.13;;;5.22;;
31450;SDS011;18070;52.474;13.304;2023-12-22T05:49:52;9.77;;;6.32;;
31450;SDS011;18070;52.474;13.304;2023-12-22T05:52:18;11.68;;;7.15;;
31450;SDS011;18070;52.474;13.304;2023-12-22T05:54:44;10.18;;;6.35;;
31450;SDS011;18070;52.474;13.304;2023-12-22T05:57:11;11.85;;;6.65;;
31450;SDS011;18070;52.474;13.304;2023-12-22T05:59:37;11.68;;;6.68;;
31450;SDS011;18070;52.474;13.304;2023-12-22T06:02:03;7.65;;;5.97;;
31450;SDS011;18070;52.474;13.304;2023-12-22T06:04:29;8.43;;;5.75;;
31450;SDS011;18070;52.474;13.304;2023-12-22T06:06:56;13.70;;;5.70;;
31450;SDS011;18070;52.474;13.304;2023-12-22T06:09:22;14.52;;;4.32;;
31450;SDS011;18070;52.474;13.304;2023-12-22T06:11:48;9.20;;;3.90;;
31450;SDS011;18070;52.474;13.304;2023-12-22T06:14:14;5.82;;;3.17;;
31450;SDS011;18070;52.474;13.304;2023-12-22T06:16:40;11.98;;;4.82;;
31450;SDS011;18070;52.474;13.304;2023-12-22T06:19:06;9.10;;;3.67;;
31450;SDS011;18070;52.474;13.304;2023-12-22T06:21:32;10.27;;;4.72;;
31450;SDS011;18070;52.474;13.304;2023-12-22T06:24:01;8.57;;;4.22;;
31450;SDS011;18070;52.474;13.304;2023-12-22T06:26:27;8.05;;;4.50;;
31450;SDS011;18070;52.474;13.304;2023-12-22T06:28:53;9.35;;;4.63;;
31450;SDS011;18070;52.474;13.304;2023-12-22T06:31:19;9.02;;;5.10;;
31450;SDS011;18070;52.474;13.304;2023-12-22T06:33:47;8.88;;;4.60;;
31450;SDS011;18070;52.474;13.304;2023-12-22T06:36:20;7.97;;;5.55;;
31450;SDS011;18070;52.474;13.304;2023-12-22T06:38:50;13.15;;;6.22;;
31450;SDS011;18070;52.474;13.304;2023-12-22T06:41:20;6.00;;;4.88;;
31450;SDS011;18070;52.474;13.304;2023-12-22T06:43:46;8.30;;;3.95;;
31450;SDS011;18070;52.474;13.304;2023-12-22T06:46:15;4.72;;;3.42;;
31450;SDS011;18070;52.474;13.304;2023-12-22T06:48:41;7.22;;;3.72;;
31450;SDS011;18070;52.474;13.304;2023-12-22T06:51:07;5.70;;;4.05;;
31450;SDS011;18070;52.474;13.304;2023-12-22T06:53:42;8.55;;;5.35;;
31450;SDS011;18070;52.474;13.304;2023-12-22T06:56:20;5.95;;;4.50;;
31450;SDS011;18070;52.474;13.304;2023-12-22T06:58:47;11.93;;;6.43;;
31450;SDS011;18070;52.474;13.304;2023-12-22T07:01:29;6.38;;;4.05;;
31450;SDS011;18070;52.474;13.304;2023-12-22T07:03:59;8.55;;;3.80;;
31450;SDS011;18070;52.474;13.304;2023-12-22T07:06:26;7.57;;;3.80;;
31450;SDS011;18070;52.474;13.304;2023-12-22T07:08:56;7.93;;;4.55;;
31450;SDS011;18070;52.474;13.304;2023-12-22T07:11:22;5.35;;;4.80;;
31450;SDS011;18070;52.474;13.304;2023-12-22T07:13:48;11.73;;;5.50;;
31450;SDS011;18070;52.474;13.304;2023-12-22T07:16:15;7.97;;;4.53;;
31450;SDS011;18070;52.474;13.304;2023-12-22T07:18:41;7.28;;;6.25;;
31450;SDS011;18070;52.474;13.304;2023-12-22T07:21:07;8.20;;;5.57;;
31450;SDS011;18070;52.474;13.304;2023-12-22T07:23:33;8.85;;;6.03;;
31450;SDS011;18070;52.474;13.304;2023-12-22T07:25:59;10.30;;;6.85;;
31450;SDS011;18070;52.474;13.304;2023-12-22T07:28:25;14.20;;;6.53;;
31450;SDS011;18070;52.474;13.304;2023-12-22T07:30:51;14.50;;;5.53;;
31450;SDS011;18070;52.474;13.304;2023-12-22T07:33:18;6.50;;;5.88;;
31450;SDS011;18070;52.474;13.304;2023-12-22T07:35:44;11.07;;;5.72;;
31450;SDS011;18070;52.474;13.304;2023-12-22T07:38:10;15.15;;;6.82;;
31450;SDS011;18070;52.474;13.304;2023-12-22T07:40:36;12.93;;;5.80;;
31450;SDS011;18070;52.474;13.304;2023-12-22T07:43:02;12.43;;;4.88;;
31450;SDS011;18070;52.474;13.304;2023-12-22T07:45:28;7.38;;;4.78;;
31450;SDS011;18070;52.474;13.304;2023-12-22T07:47:54;7.78;;;5.30;;
31450;SDS011;18070;52.474;13.304;2023-12-22T07:50:20;8.15;;;4.72;;
31450;SDS011;18070;52.474;13.304;2023-12-22T07:52:46;10.18;;;4.82;;
31450;SDS011;18070;52.474;13.304;2023-12-22T07:55:12;10.70;;;4.63;;
31450;SDS011;18070;52.474;13.304;2023-12-22T07:57:39;12.95;;;6.07;;
31450;SDS011;18070;52.474;13.304;2023-12-22T08:00:05;11.90;;;5.95;;
31450;SDS011;18070;52.474;13.304;2023-12-22T08:02:31;9.38;;;5.47;;
31450;SDS011;18070;52.474;13.304;2023-12-22T08:04:57;10.23;;;5.00;;
31450;SDS011;18070;52.474;13.304;2023-12-22T08:07:23;11.23;;;4.53;;
31450;SDS011;18070;52.474;13.304;2023-12-22T08:09:49;13.25;;;5.22;;
31450;SDS011;18070;52.474;13.304;2023-12-22T08:12:15;9.07;;;5.82;;
31450;SDS011;18070;52.474;13.304;2023-12-22T08:14:41;12.00;;;4.78;;
31450;SDS011;18070;52.474;13.304;2023-12-22T08:17:07;6.00;;;4.00;;
31450;SDS011;18070;52.474;13.304;2023-12-22T08:19:33;5.50;;;5.00;;
31450;SDS011;18070;52.474;13.304;2023-12-22T08:21:59;7.60;;;4.82;;
31450;SDS011;18070;52.474;13.304;2023-12-22T08:24:25;5.85;;;5.45;;
31450;SDS011;18070;52.474;13.304;2023-12-22T08:26:51;8.30;;;4.70;;
31450;SDS011;18070;52.474;13.304;2023-12-22T08:29:17;7.90;;;4.43;;
31450;SDS011;18070;52.474;13.304;2023-12-22T08:31:46;8.68;;;4.30;;
31450;SDS011;18070;52.474;13.304;2023-12-22T08:34:12;7.25;;;4.60;;
31450;SDS011;18070;52.474;13.304;2023-12-22T08:36:38;9.68;;;5.80;;
31450;SDS011;18070;52.474;13.304;2023-12-22T08:39:04;10.05;;;4.57;;
31450;SDS011;18070;52.474;13.304;2023-12-22T08:41:30;8.52;;;4.78;;
31450;SDS011;18070;52.474;13.304;2023-12-22T08:44:01;7.45;;;5.00;;
31450;SDS011;18070;52.474;13.304;2023-12-22T08:46:27;10.68;;;6.13;;
31450;SDS011;18070;52.474;13.304;2023-12-22T08:48:54;10.70;;;5.22;;
31450;SDS011;18070;52.474;13.304;2023-12-22T08:51:20;17.52;;;5.65;;
31450;SDS011;18070;52.474;13.304;2023-12-22T08:53:46;10.40;;;4.70;;
31450;SDS011;18070;52.474;13.304;2023-12-22T08:56:12;12.82;;;5.10;;
31450;SDS011;18070;52.474;13.304;2023-12-22T08:58:38;11.93;;;4.45;;
31450;SDS011;18070;52.474;13.304;2023-12-22T09:01:04;8.95;;;4.05;;
31450;SDS011;18070;52.474;13.304;2023-12-22T09:03:33;7.35;;;3.20;;
31450;SDS011;18070;52.474;13.304;2023-12-22T09:06:00;11.13;;;3.67;;
31450;SDS011;18070;52.474;13.304;2023-12-22T09:08:26;13.32;;;3.88;;
31450;SDS011;18070;52.474;13.304;2023-12-22T09:10:52;11.88;;;4.63;;
31450;SDS011;18070;52.474;13.304;2023-12-22T09:13:19;16.20;;;4.07;;
31450;SDS011;18070;52.474;13.304;2023-12-22T09:15:45;13.70;;;4.00;;
31450;SDS011;18070;52.474;13.304;2023-12-22T09:18:13;14.27;;;4.25;;
31450;SDS011;18070;52.474;13.304;2023-12-22T09:20:39;12.63;;;3.42;;
31450;SDS011;18070;52.474;13.304;2023-12-22T09:23:05;10.60;;;4.13;;
31450;SDS011;18070;52.474;13.304;2023-12-22T09:25:33;13.02;;;4.40;;
31450;SDS011;18070;52.474;13.304;2023-12-22T09:27:59;9.30;;;3.70;;
31450;SDS011;18070;52.474;13.304;2023-12-22T09:30:25;13.68;;;3.78;;
31450;SDS011;18070;52.474;13.304;2023-12-22T09:32:51;30.33;;;5.25;;
31450;SDS011;18070;52.474;13.304;2023-12-22T09:35:17;13.07;;;4.90;;
31450;SDS011;18070;52.474;13.304;2023-12-22T09:37:43;14.00;;;5.45;;
31450;SDS011;18070;52.474;13.304;2023-12-22T09:40:09;12.05;;;4.78;;
31450;SDS011;18070;52.474;13.304;2023-12-22T09:42:37;14.45;;;4.60;;
31450;SDS011;18070;52.474;13.304;2023-12-22T09:45:07;14.43;;;4.47;;
31450;SDS011;18070;52.474;13.304;2023-12-22T09:47:34;20.65;;;4.70;;
31450;SDS011;18070;52.474;13.304;2023-12-22T09:50:01;24.13;;;4.55;;
31450;SDS011;18070;52.474;13.304;2023-12-22T09:52:27;16.75;;;4.70;;
31450;SDS011;18070;52.474;13.304;2023-12-22T09:54:54;12.77;;;3.72;;
31450;SDS011;18070;52.474;13.304;2023-12-22T09:57:21;14.57;;;4.03;;
31450;SDS011;18070;52.474;13.304;2023-12-22T09:59:48;16.20;;;4.53;;
31450;SDS011;18070;52.474;13.304;2023-12-22T10:02:14;19.17;;;5.30;;
31450;SDS011;18070;52.474;13.304;2023-12-22T10:04:40;15.40;;;5.43;;
31450;SDS011;18070;52.474;13.304;2023-12-22T10:07:06;24.05;;;5.18;;
31450;SDS011;18070;52.474;13.304;2023-12-22T10:09:33;18.00;;;4.70;;
31450;SDS011;18070;52.474;13.304;2023-12-22T10:12:00;18.80;;;4.70;;
31450;SDS011;18070;52.474;13.304;2023-12-22T10:14:27;14.15;;;4.40;;
31450;SDS011;18070;52.474;13.304;2023-12-22T10:16:53;21.00;;;4.22;;
31450;SDS011;18070;52.474;13.304;2023-12-22T10:19:19;16.95;;;5.60;;
31450;SDS011;18070;52.474;13.304;2023-12-22T10:21:45;16.85;;;4.47;;
31450;SDS011;18070;52.474;13.304;2023-12-22T10:24:57;19.73;;;4.93;;
31450;SDS011;18070;52.474;13.304;2023-12-22T10:26:58;24.63;;;4.72;;
31450;SDS011;18070;52.474;13.304;2023-12-22T10:29:24;23.90;;;6.63;;
31450;SDS011;18070;52.474;13.304;2023-12-22T10:31:50;14.98;;;5.18;;
31450;SDS011;18070;52.474;13.304;2023-12-22T10:34:15;21.67;;;4.57;;
31450;SDS011;18070;52.474;13.304;2023-12-22T10:36:42;25.17;;;3.90;;
31450;SDS011;18070;52.474;13.304;2023-12-22T10:39:09;24.08;;;4.93;;
31450;SDS011;18070;52.474;13.304;2023-12-22T10:41:35;16.50;;;4.38;;
31450;SDS011;18070;52.474;13.304;2023-12-22T10:44:01;18.92;;;4.50;;
31450;SDS011;18070;52.474;13.304;2023-12-22T10:46:27;21.75;;;4.78;;
31450;SDS011;18070;52.474;13.304;2023-12-22T10:48:56;21.58;;;4.32;;
31450;SDS011;18070;52.474;13.304;2023-12-22T10:51:22;22.55;;;4.45;;
31450;SDS011;18070;52.474;13.304;2023-12-22T10:53:48;11.23;;;4.15;;
31450;SDS011;18070;52.474;13.304;2023-12-22T10:56:14;13.93;;;4.40;;
31450;SDS011;18070;52.474;13.304;2023-12-22T10:58:40;19.80;;;4.25;;
31450;SDS011;18070;52.474;13.304;2023-12-22T11:01:07;14.35;;;4.35;;
31450;SDS011;18070;52.474;13.304;2023-12-22T11:03:35;16.27;;;4.35;;
31450;SDS011;18070;52.474;13.304;2023-12-22T11:06:04;16.67;;;3.95;;
31450;SDS011;18070;52.474;13.304;2023-12-22T11:08:32;12.25;;;3.88;;
31450;SDS011;18070;52.474;13.304;2023-12-22T11:11:01;11.57;;;3.97;;
31450;SDS011;18070;52.474;13.304;2023-12-22T11:13:30;15.43;;;4.15;;
31450;SDS011;18070;52.474;13.304;2023-12-22T11:15:57;17.13;;;4.20;;
31450;SDS011;18070;52.474;13.304;2023-12-22T11:18:23;32.38;;;4.45;;
31450;SDS011;18070;52.474;13.304;2023-12-22T11:20:50;24.50;;;4.63;;
31450;SDS011;18070;52.474;13.304;2023-12-22T11:23:17;17.52;;;4.00;;
31450;SDS011;18070;52.474;13.304;2023-12-22T11:25:44;20.38;;;5.22;;
31450;SDS011;18070;52.474;13.304;2023-12-22T11:28:11;9.13;;;3.33;;
31450;SDS011;18070;52.474;13.304;2023-12-22T11:30:37;13.55;;;4.38;;
31450;SDS011;18070;52.474;13.304;2023-12-22T11:33:04;16.58;;;3.72;;
31450;SDS011;18070;52.474;13.304;2023-12-22T11:35:30;13.63;;;4.30;;
31450;SDS011;18070;52.474;13.304;2023-12-22T11:37:57;12.40;;;4.25;;
31450;SDS011;18070;52.474;13.304;2023-12-22T11:40:24;12.52;;;3.97;;
31450;SDS011;18070;52.474;13.304;2023-12-22T11:42:50;11.63;;;4.10;;
31450;SDS011;18070;52.474;13.304;2023-12-22T11:45:17;12.75;;;4.45;;
31450;SDS011;18070;52.474;13.304;2023-12-22T11:47:44;10.15;;;3.92;;
31450;SDS011;18070;52.474;13.304;2023-12-22T11:50:10;16.02;;;4.38;;
31450;SDS011;18070;52.474;13.304;2023-12-22T11:52:36;15.40;;;4.82;;
31450;SDS011;18070;52.474;13.304;2023-12-22T11:55:02;19.23;;;4.20;;
31450;SDS011;18070;52.474;13.304;2023-12-22T11:57:29;14.75;;;4.10;;
31450;SDS011;18070;52.474;13.304;2023-12-22T11:59:56;15.60;;;4.72;;
31450;SDS011;18070;52.474;13.304;2023-12-22T12:02:22;11.48;;;4.03;;
31450;SDS011;18070;52.474;13.304;2023-12-22T12:04:48;15.13;;;4.82;;
31450;SDS011;18070;52.474;13.304;2023-12-22T12:09:58;10.52;;;3.75;;
31450;SDS011;18070;52.474;13.304;2023-12-22T12:12:24;19.67;;;4.72;;
31450;SDS011;18070;52.474;13.304;2023-12-22T12:14:50;19.27;;;4.75;;
31450;SDS011;18070;52.474;13.304;2023-12-22T12:17:19;28.70;;;5.90;;
31450;SDS011;18070;52.474;13.304;2023-12-22T12:19:46;14.40;;;4.35;;
31450;SDS011;18070;52.474;13.304;2023-12-22T12:22:13;15.20;;;4.63;;
31450;SDS011;18070;52.474;13.304;2023-12-22T12:24:40;19.73;;;4.55;;
31450;SDS011;18070;52.474;13.304;2023-12-22T12:27:07;11.93;;;3.78;;
31450;SDS011;18070;52.474;13.304;2023-12-22T12:29:33;14.70;;;3.90;;
31450;SDS011;18070;52.474;13.304;2023-12-22T12:32:02;16.50;;;3.85;;
31450;SDS011;18070;52.474;13.304;2023-12-22T12:34:29;13.00;;;3.72;;
31450;SDS011;18070;52.474;13.304;2023-12-22T12:36:55;10.40;;;3.65;;
31450;SDS011;18070;52.474;13.304;2023-12-22T12:39:21;19.23;;;4.38;;
31450;SDS011;18070;52.474;13.304;2023-12-22T12:41:53;12.88;;;3.20;;
31450;SDS011;18070;52.474;13.304;2023-12-22T12:44:21;21.58;;;4.55;;
31450;SDS011;18070;52.474;13.304;2023-12-22T12:46:48;18.83;;;6.25;;
31450;SDS011;18070;52.474;13.304;2023-12-22T12:49:14;17.27;;;5.47;;
31450;SDS011;18070;52.474;13.304;2023-12-22T12:51:41;16.17;;;4.70;;
31450;SDS011;18070;52.474;13.304;2023-12-22T12:54:08;19.80;;;4.97;;
31450;SDS011;18070;52.474;13.304;2023-12-22T12:59:08;14.35;;;5.82;;
31450;SDS011;18070;52.474;13.304;2023-12-22T13:01:44;20.08;;;5.63;;
31450;SDS011;18070;52.474;13.304;2023-12-22T13:04:10;23.02;;;5.03;;
31450;SDS011;18070;52.474;13.304;2023-12-22T13:09:10;19.45;;;5.82;;
31450;SDS011;18070;52.474;13.304;2023-12-22T13:11:36;12.02;;;4.80;;
31450;SDS011;18070;52.474;13.304;2023-12-22T13:14:02;15.13;;;3.95;;
31450;SDS011;18070;52.474;13.304;2023-12-22T13:16:30;14.43;;;4.43;;
31450;SDS011;18070;52.474;13.304;2023-12-22T13:18:57;13.38;;;4.95;;
31450;SDS011;18070;52.474;13.304;2023-12-22T13:21:23;15.95;;;4.95;;
31450;SDS011;18070;52.474;13.304;2023-12-22T13:26:34;14.23;;;3.45;;
31450;SDS011;18070;52.474;13.304;2023-12-22T13:29:00;16.23;;;4.55;;
31450;SDS011;18070;52.474;13.304;2023-12-22T13:31:26;16.10;;;4.60;;
31450;SDS011;18070;52.474;13.304;2023-12-22T13:33:52;23.00;;;5.00;;
31450;SDS011;18070;52.474;13.304;2023-12-22T13:36:18;12.32;;;4.38;;
31450;SDS011;18070;52.474;13.304;2023-12-22T13:38:45;20.10;;;5.05;;
31450;SDS011;18070;52.474;13.304;2023-12-22T13:41:12;22.70;;;4.72;;
31450;SDS011;18070;52.474;13.304;2023-12-22T13:43:38;14.25;;;3.47;;
31450;SDS011;18070;52.474;13.304;2023-12-22T13:46:05;20.02;;;5.35;;
31450;SDS011;18070;52.474;13.304;2023-12-22T13:48:33;19.23;;;4.97;;
31450;SDS011;18070;52.474;13.304;2023-12-22T13:50:59;17.25;;;4.82;;
31450;SDS011;18070;52.474;13.304;2023-12-22T13:53:26;13.43;;;4.63;;
31450;SDS011;18070;52.474;13.304;2023-12-22T13:55:58;20.58;;;4.93;;
31450;SDS011;18070;52.474;13.304;2023-12-22T13:58:24;20.23;;;4.50;;
31450;SDS011;18070;52.474;13.304;2023-12-22T14:00:51;13.18;;;4.25;;
31450;SDS011;18070;52.474;13.304;2023-12-22T14:03:17;15.93;;;5.10;;
31450;SDS011;18070;52.474;13.304;2023-12-22T14:05:50;14.65;;;5.30;;
31450;SDS011;18070;52.474;13.304;2023-12-22T14:08:18;16.48;;;5.65;;
31450;SDS011;18070;52.474;13.304;2023-12-22T14:10:44;12.38;;;5.72;;
31450;SDS011;18070;52.474;13.304;2023-12-22T14:13:11;13.57;;;6.63;;
31450;SDS011;18070;52.474;13.304;2023-12-22T14:15:37;14.13;;;7.80;;
31450;SDS011;18070;52.474;13.304;2023-12-22T14:18:04;16.38;;;6.82;;
31450;SDS011;18070;52.474;13.304;2023-12-22T14:20:30;13.30;;;6.97;;
31450;SDS011;18070;52.474;13.304;2023-12-22T14:22:56;10.25;;;4.30;;
31450;SDS011;18070;52.474;13.304;2023-12-22T14:25:22;15.05;;;4.35;;
31450;SDS011;18070;52.474;13.304;2023-12-22T14:27:50;8.00;;;4.50;;
31450;SDS011;18070;52.474;13.304;2023-12-22T14:30:17;15.45;;;3.95;;
31450;SDS011;18070;52.474;13.304;2023-12-22T14:32:43;12.05;;;4.60;;